Time;durP1;ratioP1;P1;durP2;ratioP2;P2;SDS_P1;SDS_P2;PMS_P1;PMS_P2;Temp;Humidity;BMP_temperature;BMP_pressure;BME280_temperature;BME280_humidity;BME280_pressure;Samples;Min_cycle;Max_cycle;Signal;HPM_P1;HPM_P2
2022/12/12 00:01:38;;;;;;;4.17;3.87;;;;;;;5.81;66.37;93617.16;5048758;28;20226;-64
2022/12/12 00:04:04;;;;;;;5.00;4.60;;;;;;;5.87;66.87;93608.69;5050132;28;20217;-64
2022/12/12 00:06:30;;;;;;;4.83;4.43;;;;;;;5.81;67.81;93611.94;5037326;28;20228;-64
2022/12/12 00:08:55;;;;;;;5.13;4.73;;;;;;;5.89;68.20;93627.63;5031821;28;20186;-64
2022/12/12 00:11:25;;;;;;;4.37;4.07;;;;;;;5.94;67.81;93638.44;5023317;28;20292;-65
2022/12/12 00:13:51;;;;;;;4.10;3.80;;;;;;;5.92;67.89;93638.56;5027269;28;20292;-65
2022/12/12 00:16:17;;;;;;;4.00;3.70;;;;;;;5.85;66.49;93645.38;5025589;28;20238;-64
2022/12/12 00:18:43;;;;;;;4.50;4.20;;;;;;;5.97;67.53;93653.78;5025103;28;20236;-64
2022/12/12 00:21:20;;;;;;;5.10;4.70;;;;;;;5.99;68.56;93656.22;5030306;28;20182;-64
2022/12/12 00:23:46;;;;;;;5.23;4.73;;;;;;;5.94;68.35;93659.31;5024732;28;20194;-64
2022/12/12 00:26:27;;;;;;;4.93;4.53;;;;;;;5.87;68.17;93647.81;5029034;28;20218;-64
2022/12/12 00:28:53;;;;;;;5.83;5.37;;;;;;;5.74;68.41;93656.91;5036766;28;20218;-64
2022/12/12 00:31:19;;;;;;;5.37;4.97;;;;;;;5.80;67.77;93665.06;5036958;28;20241;-64
2022/12/12 00:33:46;;;;;;;5.50;5.00;;;;;;;5.69;68.27;93661.78;5029013;28;20233;-64
2022/12/12 00:36:12;;;;;;;5.40;4.90;;;;;;;5.67;68.88;93663.72;5035308;28;20284;-65
2022/12/12 00:38:38;;;;;;;5.40;5.00;;;;;;;5.64;68.56;93673.63;5049771;28;20182;-65
2022/12/12 00:41:04;;;;;;;5.97;5.40;;;;;;;5.67;68.48;93662.91;5043262;28;20226;-65
2022/12/12 00:43:30;;;;;;;6.33;5.73;;;;;;;5.66;68.34;93656.03;5055493;28;20276;-65
2022/12/12 00:46:00;;;;;;;6.13;5.63;;;;;;;5.44;69.23;93660.00;5048953;28;20229;-64
2022/12/12 00:48:26;;;;;;;6.40;5.90;;;;;;;5.37;69.21;93656.38;5046141;28;20241;-64
2022/12/12 00:50:53;;;;;;;6.57;6.07;;;;;;;5.37;69.41;93657.19;5062174;28;20221;-65
2022/12/12 00:53:18;;;;;;;6.93;6.33;;;;;;;5.46;68.90;93661.47;5027309;28;20245;-64
2022/12/12 00:55:44;;;;;;;7.53;6.93;;;;;;;5.50;69.03;93656.78;5040145;28;20217;-64
2022/12/12 00:58:09;;;;;;;8.50;7.80;;;;;;;5.52;68.91;93675.69;5042292;28;20213;-65
2022/12/12 01:00:40;;;;;;;8.10;7.40;;;;;;;5.46;68.93;93677.13;5041983;28;20221;-64
2022/12/12 01:03:05;;;;;;;10.03;8.27;;;;;;;5.53;69.38;93692.97;5022916;28;20186;-64
2022/12/12 01:05:31;;;;;;;9.30;8.50;;;;;;;5.57;69.21;93688.28;5041787;28;20232;-64
2022/12/12 01:07:57;;;;;;;8.67;7.93;;;;;;;5.57;68.90;93680.44;5043506;28;20328;-63
2022/12/12 01:10:23;;;;;;;8.37;7.57;;;;;;;5.42;69.37;93670.56;5041598;28;20253;-64
2022/12/12 01:12:48;;;;;;;9.40;8.60;;;;;;;5.57;69.44;93681.25;5037357;28;20225;-64
2022/12/12 01:15:14;;;;;;;9.30;8.47;;;;;;;5.63;69.40;93677.22;5045169;28;20244;-64
2022/12/12 01:17:40;;;;;;;8.37;7.67;;;;;;;5.55;69.35;93666.75;5041981;28;20189;-63
2022/12/12 01:20:07;;;;;;;8.40;7.60;;;;;;;5.60;69.53;93669.72;5038525;28;20309;-64
2022/12/12 01:22:33;;;;;;;9.40;8.60;;;;;;;5.60;69.30;93667.91;5052866;28;20260;-63
2022/12/12 01:24:59;;;;;;;9.43;8.53;;;;;;;5.59;69.11;93670.69;5037901;28;20452;-63
2022/12/12 01:27:26;;;;;;;9.83;8.93;;;;;;;5.50;69.34;93669.81;5045607;28;20229;-64
2022/12/12 01:29:51;;;;;;;10.60;9.70;;;;;;;5.34;69.33;93672.31;5040249;28;20186;-63
2022/12/12 01:32:17;;;;;;;10.60;9.70;;;;;;;5.47;69.22;93667.50;5054507;28;20222;-63
2022/12/12 01:34:42;;;;;;;11.20;10.10;;;;;;;5.46;69.60;93677.13;5041947;28;20230;-63
2022/12/12 01:37:08;;;;;;;11.60;10.50;;;;;;;5.40;70.37;93682.13;5045814;28;20231;-63
2022/12/12 01:39:33;;;;;;;11.73;10.60;;;;;;;5.39;70.58;93683.91;5051303;28;20337;-64
2022/12/12 01:41:59;;;;;;;11.90;10.73;;;;;;;5.38;70.11;93686.69;5038449;28;20178;-63
2022/12/12 01:44:41;;;;;;;12.77;11.57;;;;;;;5.26;70.02;93688.72;5041514;28;20182;-63
2022/12/12 01:47:07;;;;;;;13.40;12.00;;;;;;;5.17;70.66;93682.63;5039851;28;20236;-63
2022/12/12 01:49:33;;;;;;;13.33;12.03;;;;;;;5.28;70.33;93695.41;5049725;28;20218;-64
2022/12/12 01:52:09;;;;;;;12.57;11.43;;;;;;;5.24;69.49;93698.50;5043695;28;20327;-63
2022/12/12 01:54:41;;;;;;;13.73;12.53;;;;;;;5.05;69.79;93694.25;5040917;28;20261;-63
2022/12/12 01:57:11;;;;;;;12.87;11.67;;;;;;;4.99;69.97;93684.44;5022739;28;20186;-63
2022/12/12 01:59:38;;;;;;;13.23;12.03;;;;;;;4.93;69.71;93691.06;5028425;28;20189;-64
2022/12/12 02:02:04;;;;;;;12.93;11.77;;;;;;;4.88;70.27;93695.91;5043013;28;20222;-63
2022/12/12 02:04:30;;;;;;;12.40;11.27;;;;;;;4.75;70.29;93700.66;5041584;28;20229;-62
2022/12/12 02:06:56;;;;;;;11.97;10.80;;;;;;;4.77;69.74;93711.75;5049635;28;20294;-63
2022/12/12 02:09:24;;;;;;;12.77;11.57;;;;;;;4.79;70.16;93728.88;5042378;28;20221;-64
2022/12/12 02:11:51;;;;;;;12.70;11.50;;;;;;;4.81;70.55;93715.69;5028525;28;20214;-64
2022/12/12 02:14:26;;;;;;;12.13;11.03;;;;;;;4.86;69.80;93726.47;5023457;28;20254;-63
2022/12/12 02:17:00;;;;;;;12.20;11.13;;;;;;;4.94;69.54;93723.13;5021572;28;20226;-63
2022/12/12 02:19:57;;;;;;;13.03;11.83;;;;;;;4.88;69.50;93724.56;5034826;28;20233;-63
2022/12/12 02:23:00;;;;;;;12.63;11.53;;;;;;;4.96;69.30;93726.41;5027980;28;20302;-63
2022/12/12 02:26:00;;;;;;;12.83;11.57;;;;;;;4.97;69.26;93726.28;5025231;28;20244;-63
2022/12/12 02:28:37;;;;;;;13.13;11.83;;;;;;;4.92;69.04;93720.69;5024692;28;20231;-64
2022/12/12 02:31:22;;;;;;;12.57;11.37;;;;;;;4.78;69.26;93729.81;5016249;28;20237;-63
2022/12/12 02:34:23;;;;;;;12.90;11.67;;;;;;;4.69;69.55;93722.09;5028415;28;20228;-63
2022/12/12 02:36:57;;;;;;;12.83;11.53;;;;;;;4.66;69.34;93730.22;5022916;28;20223;-64
2022/12/12 02:39:47;;;;;;;13.23;11.93;;;;;;;4.60;69.96;93724.63;5018191;28;20225;-63
2022/12/12 02:42:31;;;;;;;13.60;12.30;;;;;;;4.52;69.91;93719.34;5023496;28;20260;-63
2022/12/12 02:45:12;;;;;;;14.53;13.23;;;;;;;4.57;70.54;93731.88;5025775;28;20214;-63
2022/12/12 02:47:47;;;;;;;13.27;11.97;;;;;;;4.63;70.46;93726.94;5016793;28;20183;-63
2022/12/12 02:50:20;;;;;;;14.27;12.97;;;;;;;4.56;70.71;93722.47;5032924;28;20300;-64
2022/12/12 02:52:46;;;;;;;14.07;12.83;;;;;;;4.54;70.44;93717.38;5042163;28;20230;-63
2022/12/12 02:55:13;;;;;;;14.27;12.97;;;;;;;4.42;70.64;93710.78;5020111;28;20226;-63
2022/12/12 02:57:40;;;;;;;13.97;12.57;;;;;;;4.47;70.77;93707.72;5020483;28;20265;-64
2022/12/12 03:00:09;;;;;;;15.10;13.80;;;;;;;4.43;70.09;93708.00;5030723;28;20179;-64
2022/12/12 03:02:40;;;;;;;15.87;14.47;;;;;;;4.39;70.59;93706.66;5048126;28;20215;-64
2022/12/12 03:08:38;;;;;;;15.57;14.10;;;;;;;4.42;70.05;93719.38;5022094;28;20240;-64
2022/12/12 03:11:34;;;;;;;15.43;13.93;;;;;;;4.33;70.36;93709.03;5016858;28;20219;-64
2022/12/12 03:14:35;;;;;;;16.53;14.87;;;;;;;4.30;70.52;93717.13;5034224;28;20305;-64
2022/12/12 03:17:12;;;;;;;15.10;13.80;;;;;;;4.30;70.72;93710.13;5034566;28;20249;-65
2022/12/12 03:20:10;;;;;;;15.63;14.23;;;;;;;4.27;70.54;93707.00;5038619;28;20226;-65
2022/12/12 03:22:53;;;;;;;14.83;13.43;;;;;;;4.43;69.94;93715.00;5034348;28;20265;-65
2022/12/12 03:25:29;;;;;;;14.03;12.73;;;;;;;4.49;69.31;93710.97;5039944;28;20226;-65
2022/12/12 03:28:22;;;;;;;15.50;14.07;;;;;;;4.46;69.53;93726.91;5046794;28;20258;-65
2022/12/12 03:30:54;;;;;;;14.90;13.50;;;;;;;4.46;69.82;93719.91;5034800;28;20230;-65
2022/12/12 03:33:28;;;;;;;15.07;13.67;;;;;;;4.45;69.66;93718.28;5041855;28;20245;-65
2022/12/12 03:36:02;;;;;;;13.57;12.37;;;;;;;4.41;69.88;93720.38;5036790;28;20216;-65
2022/12/12 03:38:35;;;;;;;15.23;13.77;;;;;;;4.41;69.43;93733.38;5054583;28;20254;-65
2022/12/12 03:41:04;;;;;;;15.80;14.27;;;;;;;4.47;69.62;93736.38;5036122;28;20214;-65
2022/12/12 03:44:06;;;;;;;15.73;14.23;;;;;;;4.49;69.23;93734.41;5042117;28;20222;-64
2022/12/12 03:46:39;;;;;;;16.10;14.63;;;;;;;4.47;69.05;93728.56;5040153;28;20230;-65
2022/12/12 03:49:27;;;;;;;16.10;14.40;;;;;;;4.48;69.56;93743.19;5035008;28;20230;-65
2022/12/12 03:52:02;;;;;;;15.87;14.37;;;;;;;4.46;69.59;93750.31;5040038;28;20260;-65
2022/12/12 03:54:44;;;;;;;16.40;14.70;;;;;;;4.45;69.71;93751.31;5043592;28;20293;-65
2022/12/12 03:57:21;;;;;;;16.27;14.57;;;;;;;4.38;69.91;93757.09;5036047;28;20190;-65
2022/12/12 03:59:58;;;;;;;16.03;14.43;;;;;;;4.36;70.01;93751.22;5046495;28;20194;-65
2022/12/12 04:02:39;;;;;;;16.83;15.03;;;;;;;4.36;69.51;93745.19;5041135;28;20278;-65
2022/12/12 04:05:07;;;;;;;16.50;14.80;;;;;;;4.32;69.89;93742.03;5047029;28;20229;-64
2022/12/12 04:07:40;;;;;;;16.63;14.90;;;;;;;4.40;69.67;93743.91;5043888;28;20332;-65
2022/12/12 04:12:59;;;;;;;17.97;16.07;;;;;;;4.19;70.60;93749.38;5045604;28;20231;-65
2022/12/12 04:15:51;;;;;;;18.03;16.20;;;;;;;4.22;70.63;93758.66;5044785;28;20230;-64
2022/12/12 04:18:35;;;;;;;18.93;17.03;;;;;;;4.23;70.55;93755.13;5035162;28;20229;-64
2022/12/12 04:24:42;;;;;;;17.97;16.20;;;;;;;4.04;71.04;93756.03;5021592;28;20197;-63
2022/12/12 04:27:40;;;;;;;17.90;16.10;;;;;;;4.06;71.55;93782.69;5027854;28;20186;-64
2022/12/12 04:30:11;;;;;;;18.43;16.53;;;;;;;4.16;71.63;93788.69;5009373;28;20313;-63
2022/12/12 04:32:47;;;;;;;17.93;16.10;;;;;;;4.23;71.18;93787.16;5033581;28;20361;-64
2022/12/12 04:35:20;;;;;;;18.70;16.87;;;;;;;4.18;70.87;93778.97;5029918;28;20228;-64
2022/12/12 04:37:53;;;;;;;19.67;17.67;;;;;;;4.11;70.81;93770.09;5025923;28;20221;-64
2022/12/12 04:40:28;;;;;;;17.93;16.00;;;;;;;4.12;70.91;93774.34;5026406;28;20684;-64
2022/12/12 04:43:07;;;;;;;19.17;17.13;;;;;;;4.07;71.26;93773.94;5031011;28;20225;-63
2022/12/12 04:45:37;;;;;;;17.30;15.50;;;;;;;4.12;71.70;93782.97;5025293;28;20243;-63
2022/12/12 04:48:06;;;;;;;18.70;16.77;;;;;;;4.13;71.43;93768.16;5021721;28;20217;-63
2022/12/12 04:50:33;;;;;;;17.37;15.60;;;;;;;4.16;71.16;93762.66;5029602;28;20209;-63
2022/12/12 04:53:03;;;;;;;18.43;16.63;;;;;;;4.19;71.14;93762.38;5025218;28;20221;-63
2022/12/12 04:55:32;;;;;;;18.23;16.33;;;;;;;4.14;71.12;93759.38;5030145;28;20218;-63
2022/12/12 04:57:58;;;;;;;16.70;15.07;;;;;;;4.21;70.56;93755.25;5019233;28;20317;-63
2022/12/12 05:00:29;;;;;;;18.27;16.47;;;;;;;4.23;70.25;93742.94;5017145;28;20232;-64
2022/12/12 05:03:10;;;;;;;18.20;16.33;;;;;;;4.24;70.27;93769.75;5023426;28;20189;-64
2022/12/12 05:05:54;;;;;;;18.00;16.20;;;;;;;4.09;70.80;93765.03;5011948;28;20233;-64
2022/12/12 05:08:34;;;;;;;18.73;16.93;;;;;;;4.15;71.25;93784.44;5019531;28;20206;-63
2022/12/12 05:11:03;;;;;;;18.00;16.20;;;;;;;4.09;71.25;93779.81;5022711;28;20250;-64
2022/12/12 05:13:31;;;;;;;18.37;16.30;;;;;;;4.17;71.20;93779.91;5011661;28;20245;-64
2022/12/12 05:15:58;;;;;;;17.53;15.73;;;;;;;4.19;70.61;93775.38;5016830;28;20263;-65
2022/12/12 05:18:24;;;;;;;18.03;16.20;;;;;;;4.21;70.43;93776.06;5031901;28;20221;-66
2022/12/12 05:20:49;;;;;;;17.97;16.07;;;;;;;4.19;70.54;93767.56;5031569;28;20182;-64
2022/12/12 05:23:15;;;;;;;17.17;15.50;;;;;;;4.16;70.26;93780.88;5024972;28;20254;-65
2022/12/12 05:25:41;;;;;;;18.60;16.73;;;;;;;4.12;70.99;93780.34;5020038;28;20223;-65
2022/12/12 05:28:06;;;;;;;18.37;16.57;;;;;;;4.21;70.56;93778.66;5018004;28;20235;-64
2022/12/12 05:30:32;;;;;;;18.40;16.60;;;;;;;4.21;70.96;93783.88;5025977;28;20284;-66
2022/12/12 05:32:58;;;;;;;18.93;17.13;;;;;;;4.16;71.04;93796.50;5012504;28;20198;-65
2022/12/12 05:35:23;;;;;;;18.87;17.07;;;;;;;4.24;70.90;93803.59;5025311;28;20186;-65
2022/12/12 05:37:49;;;;;;;19.00;17.07;;;;;;;4.19;70.96;93791.00;5019456;28;20280;-65
2022/12/12 05:40:14;;;;;;;19.83;17.87;;;;;;;4.22;71.06;93795.91;5019553;28;20283;-65
2022/12/12 05:42:40;;;;;;;22.20;19.90;;;;;;;4.08;71.60;93783.38;5029721;28;20229;-65
2022/12/12 05:45:07;;;;;;;22.50;20.20;;;;;;;4.09;71.68;93783.25;5016559;28;20187;-65
2022/12/12 05:47:33;;;;;;;21.10;19.00;;;;;;;4.09;72.08;93791.06;5005009;28;20205;-66
2022/12/12 05:49:58;;;;;;;21.97;19.67;;;;;;;4.25;71.69;93787.84;5026007;28;20230;-65
2022/12/12 05:52:24;;;;;;;19.50;17.57;;;;;;;4.33;71.04;93797.50;5030556;28;20230;-65
2022/12/12 05:54:50;;;;;;;19.90;17.90;;;;;;;4.31;70.75;93796.84;5025944;28;20222;-64
2022/12/12 05:57:17;;;;;;;21.40;18.77;;;;;;;4.18;70.69;93778.97;5024933;28;20190;-64
2022/12/12 05:59:43;;;;;;;21.53;19.27;;;;;;;4.20;70.92;93790.88;5029624;28;20214;-64
2022/12/12 06:02:09;;;;;;;23.83;19.87;;;;;;;4.12;71.12;93790.75;5034730;28;20229;-64
2022/12/12 06:04:34;;;;;;;22.40;19.23;;;;;;;4.21;70.93;93796.88;5026030;28;20223;-64
2022/12/12 06:07:00;;;;;;;23.70;21.13;;;;;;;3.86;72.01;93793.16;5039191;28;20226;-64
2022/12/12 06:09:25;;;;;;;23.80;20.70;;;;;;;4.14;71.53;93788.00;5025980;28;20285;-64
2022/12/12 06:11:51;;;;;;;23.17;20.67;;;;;;;4.28;71.77;93802.34;5025588;28;20214;-64
2022/12/12 06:14:16;;;;;;;23.80;20.93;;;;;;;4.11;71.29;93804.72;5035563;28;20218;-64
2022/12/12 06:16:41;;;;;;;22.70;20.30;;;;;;;4.15;72.06;93815.66;5025072;28;20237;-64
2022/12/12 06:19:07;;;;;;;24.30;20.97;;;;;;;4.09;72.13;93821.41;5028864;28;20238;-64
2022/12/12 06:21:33;;;;;;;25.77;20.50;;;;;;;4.08;72.12;93815.41;5034561;28;20234;-67
2022/12/12 06:23:58;;;;;;;23.93;19.90;;;;;;;4.19;72.04;93832.63;5044802;28;20189;-65
2022/12/12 06:26:24;;;;;;;22.43;19.70;;;;;;;3.56;73.76;93832.38;5043287;28;20241;-64
2022/12/12 06:28:49;;;;;;;21.63;19.33;;;;;;;3.56;74.03;93833.19;5043096;28;20226;-64
2022/12/12 06:31:16;;;;;;;22.27;19.37;;;;;;;3.34;74.89;93834.25;5039461;28;20230;-65
2022/12/12 06:33:42;;;;;;;24.00;21.40;;;;;;;3.37;76.13;93830.56;5045383;28;20298;-65
2022/12/12 06:36:22;;;;;;;25.60;21.97;;;;;;;3.73;74.89;93850.66;5039991;28;20212;-63
2022/12/12 06:38:49;;;;;;;21.67;19.00;;;;;;;4.05;73.90;93851.28;5037401;28;20240;-63
2022/12/12 06:41:15;;;;;;;23.27;20.77;;;;;;;4.17;73.18;93852.75;5027588;28;20220;-64
2022/12/12 06:43:41;;;;;;;21.47;19.17;;;;;;;4.40;72.67;93866.25;5029690;28;20221;-66
2022/12/12 06:46:12;;;;;;;22.20;19.60;;;;;;;4.52;72.47;93853.88;5045082;28;20221;-65
2022/12/12 06:48:38;;;;;;;21.73;19.43;;;;;;;4.50;72.44;93855.81;5033804;28;20233;-66
2022/12/12 06:51:08;;;;;;;20.73;18.47;;;;;;;4.62;71.55;93858.09;5052549;28;20205;-65
2022/12/12 06:53:34;;;;;;;19.83;17.23;;;;;;;4.71;70.91;93859.00;5040524;28;20236;-64
2022/12/12 06:56:08;;;;;;;21.17;19.00;;;;;;;4.73;71.21;93870.09;5045129;28;20221;-65
2022/12/12 06:58:34;;;;;;;19.37;17.37;;;;;;;4.74;70.48;93847.47;5031503;28;20212;-65
2022/12/12 07:00:59;;;;;;;22.87;20.53;;;;;;;4.68;71.08;93874.06;5031150;28;20247;-65
2022/12/12 07:03:25;;;;;;;23.53;21.23;;;;;;;4.62;71.08;93862.44;5039765;28;20181;-65
2022/12/12 07:05:50;;;;;;;24.27;21.67;;;;;;;4.62;71.28;93872.88;5043809;28;20177;-66
2022/12/12 07:08:15;;;;;;;25.00;22.47;;;;;;;4.85;70.58;93871.53;5040394;28;20228;-65
2022/12/12 07:10:42;;;;;;;24.67;22.27;;;;;;;4.97;70.23;93885.19;5037236;28;20279;-64
2022/12/12 07:13:09;;;;;;;24.73;22.23;;;;;;;5.01;69.45;93857.06;5036038;28;20234;-65
2022/12/12 07:15:41;;;;;;;25.43;22.77;;;;;;;5.06;70.12;93886.09;5040649;28;20256;-64
2022/12/12 07:18:06;;;;;;;24.00;21.47;;;;;;;5.02;70.30;93874.31;5041558;28;20189;-63
2022/12/12 07:20:32;;;;;;;24.43;22.03;;;;;;;5.12;70.26;93892.50;5032481;28;20221;-61
2022/12/12 07:22:57;;;;;;;26.43;23.83;;;;;;;5.26;69.75;93885.00;5020956;28;20253;-61
2022/12/12 07:25:23;;;;;;;27.07;24.40;;;;;;;5.28;69.80;93900.50;5024514;28;20234;-62
2022/12/12 07:27:48;;;;;;;26.50;23.80;;;;;;;5.29;69.35;93884.72;5026682;28;20281;-62
2022/12/12 07:30:18;;;;;;;27.00;24.37;;;;;;;4.92;69.21;93912.63;5024802;28;20230;-64
2022/12/12 07:32:43;;;;;;;26.30;23.47;;;;;;;4.88;70.25;93904.28;5030368;28;20197;-64
2022/12/12 07:35:08;;;;;;;28.33;25.30;;;;;;;4.93;69.79;93901.25;5040349;28;20240;-65
2022/12/12 07:37:34;;;;;;;28.87;25.97;;;;;;;5.09;69.25;93910.06;5031560;28;20237;-64
2022/12/12 07:39:59;;;;;;;32.27;29.00;;;;;;;5.16;68.99;93931.16;5027889;28;20236;-64
2022/12/12 07:42:25;;;;;;;28.73;25.67;;;;;;;5.10;68.24;93942.16;5023642;28;20190;-64
2022/12/12 07:44:50;;;;;;;29.90;26.97;;;;;;;5.04;68.80;93940.94;5029833;28;20186;-64
2022/12/12 07:47:16;;;;;;;30.13;27.13;;;;;;;5.30;68.06;93935.88;5029980;28;20224;-64
2022/12/12 07:49:41;;;;;;;30.17;26.97;;;;;;;5.20;68.55;93940.31;5029294;28;20275;-64
2022/12/12 07:52:07;;;;;;;30.37;27.37;;;;;;;5.35;68.87;93934.63;5025247;28;20416;-64
2022/12/12 07:54:32;;;;;;;29.97;26.90;;;;;;;5.44;68.51;93929.34;5040185;28;20194;-65
2022/12/12 07:56:59;;;;;;;29.47;26.47;;;;;;;5.59;68.33;93944.50;5042336;28;20202;-63
2022/12/12 07:59:24;;;;;;;30.30;27.03;;;;;;;5.72;67.36;93945.75;5045320;28;20229;-63
2022/12/12 08:01:50;;;;;;;29.00;26.10;;;;;;;5.82;67.10;93947.47;5041664;28;20233;-65
2022/12/12 08:04:15;;;;;;;29.60;26.53;;;;;;;5.68;67.60;93960.06;5041916;28;20229;-65
2022/12/12 08:06:41;;;;;;;29.10;26.03;;;;;;;5.91;67.20;93951.81;5040358;28;20237;-66
2022/12/12 08:09:06;;;;;;;31.17;28.00;;;;;;;5.61;67.88;93961.59;5046030;28;20193;-66
2022/12/12 08:11:32;;;;;;;30.43;27.30;;;;;;;5.87;66.76;93953.88;5044842;28;20225;-65
2022/12/12 08:13:57;;;;;;;30.83;27.73;;;;;;;6.01;66.48;93963.00;5041514;28;20345;-65
2022/12/12 08:16:25;;;;;;;30.33;27.33;;;;;;;6.04;66.26;93964.47;5040540;28;20237;-64
2022/12/12 08:18:56;;;;;;;30.77;27.30;;;;;;;5.75;66.69;93968.94;5040263;28;20226;-66
2022/12/12 08:21:22;;;;;;;33.27;29.73;;;;;;;5.86;67.16;93973.13;5043123;28;20232;-63
2022/12/12 08:23:47;;;;;;;30.67;27.47;;;;;;;6.00;67.00;93969.19;5061257;28;20189;-64
2022/12/12 08:26:18;;;;;;;30.53;27.37;;;;;;;5.85;67.39;93975.84;5040102;28;20260;-64
2022/12/12 08:28:44;;;;;;;29.57;26.40;;;;;;;5.70;67.94;93973.78;5045855;28;20264;-66
2022/12/12 08:31:12;;;;;;;30.73;27.43;;;;;;;5.83;66.21;93972.59;5036217;28;20230;-65
2022/12/12 08:33:38;;;;;;;29.63;26.57;;;;;;;5.64;68.10;93976.13;5044211;28;20252;-67
2022/12/12 08:36:15;;;;;;;29.63;26.73;;;;;;;5.70;67.19;93981.59;5034985;28;20221;-66
2022/12/12 08:38:42;;;;;;;29.80;26.60;;;;;;;5.72;67.94;93991.88;5030771;28;20225;-66
2022/12/12 08:41:08;;;;;;;29.50;26.50;;;;;;;5.96;67.15;93991.31;5050775;28;20217;-67
2022/12/12 08:43:36;;;;;;;28.60;25.87;;;;;;;6.05;65.85;93977.41;5040852;28;20218;-66
2022/12/12 08:46:03;;;;;;;30.30;27.20;;;;;;;6.15;65.62;93987.75;5046155;28;20217;-64
2022/12/12 08:48:29;;;;;;;29.23;26.03;;;;;;;6.03;66.19;93968.88;5044512;28;20233;-66
2022/12/12 08:50:55;;;;;;;28.73;25.77;;;;;;;6.13;65.84;93977.47;5040148;28;20312;-66
2022/12/12 08:53:22;;;;;;;27.97;25.13;;;;;;;5.89;66.63;93974.59;5043613;28;20230;-68
2022/12/12 08:55:47;;;;;;;29.67;26.67;;;;;;;6.18;66.16;93982.25;5042154;28;20237;-65
2022/12/12 08:58:13;;;;;;;31.43;28.20;;;;;;;6.19;66.38;93973.44;5043637;28;20216;-64
2022/12/12 09:00:38;;;;;;;29.77;26.87;;;;;;;6.31;65.80;93968.81;5040425;28;20314;-63
2022/12/12 09:03:04;;;;;;;27.67;24.70;;;;;;;6.02;65.41;93977.69;5043715;28;20276;-65
2022/12/12 09:05:29;;;;;;;27.70;24.80;;;;;;;6.18;64.95;93958.75;5041052;28;20224;-65
2022/12/12 09:07:55;;;;;;;26.57;23.83;;;;;;;6.19;65.09;93955.97;5042365;28;20221;-67
2022/12/12 09:10:20;;;;;;;24.63;22.03;;;;;;;6.22;64.84;93970.50;5037306;28;20268;-65
2022/12/12 09:12:46;;;;;;;27.63;24.67;;;;;;;6.27;64.27;93968.28;5044055;28;20340;-66
2022/12/12 09:15:13;;;;;;;30.23;27.07;;;;;;;6.20;64.88;93969.84;5040836;28;20228;-66
2022/12/12 09:17:38;;;;;;;29.93;26.80;;;;;;;6.23;64.35;93961.72;5038435;28;20230;-64
2022/12/12 09:20:05;;;;;;;30.93;27.80;;;;;;;6.26;64.91;93969.25;5037634;28;20245;-65
2022/12/12 09:22:31;;;;;;;30.13;27.03;;;;;;;6.08;65.82;93974.47;5038259;28;20240;-64
2022/12/12 09:24:56;;;;;;;31.10;27.83;;;;;;;6.11;66.27;93963.72;5044513;28;20225;-64
2022/12/12 09:27:22;;;;;;;30.37;27.13;;;;;;;6.18;66.62;93972.63;5043978;28;20269;-64
2022/12/12 09:29:47;;;;;;;30.90;27.60;;;;;;;6.19;65.57;93971.63;5043044;28;20281;-65
2022/12/12 09:32:12;;;;;;;30.57;27.37;;;;;;;6.31;65.41;93953.16;5044378;28;20248;-65
2022/12/12 09:34:38;;;;;;;30.67;27.43;;;;;;;6.42;65.21;93952.88;5046067;28;20288;-65
2022/12/12 09:37:04;;;;;;;31.77;28.23;;;;;;;6.31;64.83;93953.16;5042283;28;20268;-64
2022/12/12 09:39:29;;;;;;;30.73;27.53;;;;;;;6.43;64.50;93945.88;5043235;28;20197;-64
2022/12/12 09:41:55;;;;;;;32.90;29.30;;;;;;;6.28;65.45;93945.59;5040363;28;20260;-63
2022/12/12 09:44:22;;;;;;;33.30;29.80;;;;;;;6.42;64.98;93937.22;5041899;28;20248;-64
2022/12/12 09:46:59;;;;;;;33.23;29.73;;;;;;;6.61;64.39;93931.78;5036802;28;20226;-66
2022/12/12 09:49:48;;;;;;;36.73;29.50;;;;;;;6.79;64.46;93936.97;5042136;28;20221;-65
2022/12/12 09:52:17;;;;;;;34.17;30.27;;;;;;;6.87;63.99;93935.34;5041697;28;20236;-66
2022/12/12 09:54:42;;;;;;;32.17;28.13;;;;;;;6.84;64.03;93929.47;5043264;28;20303;-65
2022/12/12 09:57:14;;;;;;;32.47;28.63;;;;;;;7.02;63.92;93932.00;5040645;28;20282;-64
2022/12/12 09:59:55;;;;;;;34.27;28.00;;;;;;;7.03;63.55;93930.19;5037980;28;20248;-65
2022/12/12 10:02:32;;;;;;;30.73;27.43;;;;;;;7.06;63.56;93929.91;5042609;28;20222;-64
2022/12/12 10:05:12;;;;;;;32.57;26.73;;;;;;;7.06;63.18;93928.09;5038350;28;20224;-64
2022/12/12 10:07:46;;;;;;;35.73;27.03;;;;;;;7.21;62.95;93922.25;5043673;28;20220;-65
2022/12/12 10:10:26;;;;;;;31.47;26.27;;;;;;;7.21;63.19;93925.69;5055027;28;20256;-64
2022/12/12 10:12:54;;;;;;;32.93;27.63;;;;;;;7.16;63.32;93929.75;5040579;28;20294;-66
2022/12/12 10:15:40;;;;;;;51.20;28.53;;;;;;;7.15;63.51;93920.28;5036843;28;20332;-66
2022/12/12 10:18:38;;;;;;;35.47;27.47;;;;;;;7.15;64.19;93925.53;5057278;28;20194;-66
2022/12/12 10:21:13;;;;;;;36.07;29.37;;;;;;;7.28;63.99;93923.28;5029778;28;20230;-64
2022/12/12 10:23:38;;;;;;;34.20;26.90;;;;;;;7.36;64.33;93922.50;5019585;28;20249;-63
2022/12/12 10:26:09;;;;;;;30.13;26.57;;;;;;;7.35;63.95;93916.44;5019829;28;20264;-65
2022/12/12 10:28:35;;;;;;;28.07;25.03;;;;;;;7.45;63.20;93914.50;5022967;28;20217;-65
2022/12/12 10:31:12;;;;;;;29.90;23.83;;;;;;;7.59;62.94;93922.69;5019917;28;20297;-65
2022/12/12 10:33:52;;;;;;;31.73;25.50;;;;;;;7.77;62.27;93902.44;5019109;28;20234;-65
2022/12/12 10:36:39;;;;;;;34.00;28.70;;;;;;;7.37;63.75;93867.41;5020803;28;20201;-65
2022/12/12 10:39:14;;;;;;;36.60;29.23;;;;;;;7.70;63.74;93888.41;5039554;28;20193;-64
2022/12/12 10:41:48;;;;;;;32.30;27.60;;;;;;;7.88;62.88;93875.97;5038365;28;20228;-64
2022/12/12 10:44:16;;;;;;;33.13;28.63;;;;;;;8.04;62.79;93858.63;5043041;28;20233;-66
2022/12/12 10:46:49;;;;;;;34.47;27.90;;;;;;;7.94;63.11;93864.84;5039547;28;20262;-66
2022/12/12 10:49:17;;;;;;;36.97;30.13;;;;;;;8.14;62.75;93867.13;5043318;28;20229;-65
2022/12/12 10:51:46;;;;;;;36.80;30.27;;;;;;;8.26;61.92;93851.88;5044420;28;20305;-65
2022/12/12 10:54:16;;;;;;;37.50;32.93;;;;;;;8.33;61.53;93858.09;5037413;28;20208;-66
2022/12/12 10:57:04;;;;;;;39.27;33.83;;;;;;;8.45;61.33;93869.91;5037638;28;20254;-65
2022/12/12 10:59:30;;;;;;;38.73;33.57;;;;;;;8.47;61.47;93877.59;5034258;28;20236;-65
2022/12/12 11:01:58;;;;;;;42.90;36.47;;;;;;;8.28;60.96;93876.09;5036351;28;20217;-65
2022/12/12 11:04:26;;;;;;;48.10;40.43;;;;;;;8.07;61.72;93876.63;5042261;28;20218;-65
2022/12/12 11:06:53;;;;;;;45.83;38.03;;;;;;;7.96;62.93;93869.91;5042648;28;20221;-65
2022/12/12 11:09:22;;;;;;;47.07;37.43;;;;;;;8.17;62.63;93882.50;5038137;28;20243;-65
2022/12/12 11:11:59;;;;;;;46.43;40.17;;;;;;;8.16;62.44;93876.47;5046342;28;20205;-65
2022/12/12 11:14:34;;;;;;;44.73;37.53;;;;;;;8.09;62.82;93865.00;5033791;28;20222;-65
2022/12/12 11:16:59;;;;;;;38.80;33.73;;;;;;;8.11;62.46;93873.50;5050686;28;20232;-65
2022/12/12 11:19:26;;;;;;;50.80;39.53;;;;;;;8.24;62.01;93878.25;5042837;28;20218;-65
2022/12/12 11:22:03;;;;;;;42.70;32.30;;;;;;;8.35;61.29;93871.84;5039177;28;20225;-65
2022/12/12 11:24:31;;;;;;;45.00;34.23;;;;;;;8.35;61.68;93869.25;5038991;28;20181;-66
2022/12/12 11:26:58;;;;;;;44.27;36.17;;;;;;;8.42;62.31;93872.03;5042529;28;20197;-65
2022/12/12 11:29:46;;;;;;;48.03;37.77;;;;;;;8.32;62.66;93864.34;5043045;28;20232;-65
2022/12/12 11:32:37;;;;;;;42.67;37.10;;;;;;;8.32;62.79;93853.84;5039054;28;20233;-65
2022/12/12 11:35:06;;;;;;;41.80;36.33;;;;;;;8.39;62.24;93842.59;5027053;28;20226;-65
2022/12/12 11:37:45;;;;;;;42.30;36.73;;;;;;;8.67;61.57;93850.03;5028673;28;20214;-65
2022/12/12 11:40:35;;;;;;;41.43;36.90;;;;;;;8.76;61.09;93848.19;5022630;28;20218;-65
2022/12/12 11:43:25;;;;;;;40.07;34.30;;;;;;;8.90;60.49;93844.88;5041175;28;20244;-65
2022/12/12 11:46:00;;;;;;;40.40;33.90;;;;;;;9.13;60.19;93859.84;5040864;28;20221;-66
2022/12/12 11:48:39;;;;;;;35.40;31.53;;;;;;;8.87;59.51;93847.00;5034405;28;20199;-64
2022/12/12 11:51:05;;;;;;;31.40;28.00;;;;;;;8.92;58.85;93839.44;5033099;28;20201;-64
2022/12/12 11:53:34;;;;;;;34.20;29.00;;;;;;;9.16;59.00;93839.34;5041372;28;20257;-64